Slovenska Bistrica, Slovenia
Current Conditions -  °F | °C
As of 12:30 AM on Thursday 23 Oct 2014 (Local Time) from LJMB Reporting Station
Clear Clear  
Wind Chill: 45°   Ceiling: Unl
Heat Index: 45°   Visibility: 6mi
Dew Point: 37°   Wind: 2mph
Humidity: 76%   Direction: NA
Pressure: 29.74"   Gusts: NA
Location:  46.39°N, 15.57°E
Report Text: LJMB 222230Z AUTO VRB02KT 9999 NSC 07/03 Q1007
Loading
Personal Weather Stations






























Interactive Weather Map
Tropical Storm Tracking
New forecast layout! Learn more

10-Day Weather Forecast

Advertisements
Track Severe Weather on mobile